Time;durP1;ratioP1;P1;durP2;ratioP2;P2;SDS_P1;SDS_P2;PMS_P1;PMS_P2;Temp;Humidity;BMP_temperature;BMP_pressure;BME280_temperature;BME280_humidity;BME280_pressure;Samples;Min_cycle;Max_cycle;Signal;HPM_P1;HPM_P2
2022/02/10 00:13:11;;;;;;;4.33;2.80;;;1.50;99.90;;;;;;4971819;28;20430;-72
2022/02/10 00:22:06;;;;;;;6.10;3.00;;;1.40;99.90;;;;;;4975884;28;20829;-72
2022/02/10 00:35:52;;;;;;;3.50;2.70;;;1.40;99.90;;;;;;4975803;28;20420;-73
2022/02/10 00:38:21;;;;;;;5.43;3.20;;;1.30;99.90;;;;;;4975912;28;20395;-73
2022/02/10 00:40:47;;;;;;;2.67;2.50;;;1.30;99.90;;;;;;4975378;28;20393;-73
2022/02/10 00:43:13;;;;;;;3.73;2.53;;;1.30;99.90;;;;;;4975510;28;20426;-73
2022/02/10 00:45:39;;;;;;;3.80;2.63;;;1.20;99.90;;;;;;4975592;28;20189;-73
2022/02/10 00:48:10;;;;;;;3.40;2.70;;;1.20;99.90;;;;;;4975658;28;20885;-72
2022/02/10 00:50:43;;;;;;;7.93;2.53;;;1.30;99.90;;;;;;4975358;28;20173;-70
2022/02/10 00:53:21;;;;;;;8.60;3.10;;;1.30;99.90;;;;;;4975389;28;20392;-72
2022/02/10 00:55:47;;;;;;;5.57;2.90;;;1.30;99.90;;;;;;4975427;28;20421;-73
2022/02/10 00:58:25;;;;;;;10.53;2.80;;;1.20;99.90;;;;;;4975480;28;20398;-73
2022/02/10 05:34:16;;;;;;;3.03;2.73;;;0.60;99.90;;;;;;4971655;28;20832;-74
2022/02/10 05:36:43;;;;;;;4.07;3.00;;;0.70;99.90;;;;;;4976040;28;20178;-75
2022/02/10 05:44:34;;;;;;;3.23;2.10;;;0.90;99.90;;;;;;4976950;28;20441;-74
2022/02/10 05:50:18;;;;;;;6.50;3.50;;;1.00;99.90;;;;;;4976248;28;20409;-74
2022/02/10 05:53:00;;;;;;;2.93;2.00;;;1.00;99.90;;;;;;4975321;28;20422;-74
2022/02/10 05:58:35;;;;;;;4.50;3.00;;;1.10;99.90;;;;;;4975018;28;20466;-74
2022/02/10 06:52:44;;;;;;;7.25;3.28;;;2.10;99.90;;;;;;4973709;28;20413;-74
2022/02/10 07:06:13;;;;;;;3.57;2.93;;;3.10;99.90;;;;;;4973706;28;20484;-76
2022/02/10 07:49:32;;;;;;;4.73;2.67;;;11.90;99.90;;;;;;4972840;28;20415;-76
2022/02/10 07:55:13;;;;;;;3.60;2.37;;;13.70;99.90;;;;;;4973104;28;20522;-77
2022/02/10 07:58:08;;;;;;;5.00;2.60;;;14.30;99.90;;;;;;4972596;28;20446;-77
2022/02/10 09:25:05;;;;;;;12.10;7.90;;;13.00;99.90;;;;;;4974866;28;21009;-75
2022/02/10 09:59:11;;;;;;;4.77;3.20;;;15.30;99.90;;;;;;4973807;28;20404;-74
2022/02/10 10:01:48;;;;;;;3.63;2.60;;;15.00;99.90;;;;;;4973177;28;20450;-74
2022/02/10 10:04:19;;;;;;;7.23;3.00;;;14.40;99.90;;;;;;4974160;28;20525;-75
2022/02/10 10:09:44;;;;;;;3.63;3.00;;;13.40;99.90;;;;;;4963592;23;1030582;-71
2022/02/10 10:15:02;;;;;;;5.70;3.57;;;13.30;99.90;;;;;;4993248;28;20899;-71
2022/02/10 10:17:58;;;;;;;7.10;3.90;;;14.00;99.90;;;;;;4993517;28;20829;-71
2022/02/10 10:20:28;;;;;;;4.07;3.33;;;14.40;99.90;;;;;;4993067;28;20479;-71
2022/02/10 10:50:33;;;;;;;5.97;3.83;;;13.20;99.90;;;;;;4992877;28;20422;-71
2022/02/10 10:53:17;;;;;;;6.40;3.70;;;13.00;99.90;;;;;;4992582;28;20406;-71
2022/02/10 10:58:28;;;;;;;6.63;4.20;;;12.60;99.90;;;;;;4992835;28;20447;-71
2022/02/10 11:41:54;;;;;;;10.23;4.83;;;11.10;99.90;;;;;;4992090;28;20426;-71
2022/02/10 12:36:13;;;;;;;13.13;6.40;;;10.00;99.90;;;;;;4995519;28;20433;-71
2022/02/10 14:11:01;;;;;;;11.17;6.83;;;8.60;99.90;;;;;;4973813;28;20473;-70
2022/02/10 14:16:00;;;;;;;11.87;7.63;;;8.40;99.90;;;;;;4973996;28;20928;-71
2022/02/10 14:18:30;;;;;;;8.40;6.40;;;8.40;99.90;;;;;;4972816;28;20436;-73
2022/02/10 14:21:13;;;;;;;8.53;6.77;;;8.40;99.90;;;;;;4974106;28;20475;-71
2022/02/10 14:28:50;;;;;;;9.20;7.03;;;8.30;99.90;;;;;;4974267;28;20193;-72
2022/02/10 14:31:16;;;;;;;12.43;8.20;;;8.20;99.90;;;;;;4972304;28;20805;-71
2022/02/10 14:33:43;;;;;;;10.17;8.10;;;8.20;99.90;;;;;;4972253;28;20230;-72
2022/02/10 14:36:18;;;;;;;9.53;6.43;;;8.20;99.90;;;;;;4973607;28;20191;-71
2022/02/10 14:38:54;;;;;;;11.43;6.53;;;8.10;99.90;;;;;;4973816;28;20414;-72
2022/02/10 15:16:13;;;;;;;9.07;6.20;;;7.90;99.90;;;;;;4932023;29;20431;-70
2022/02/10 15:45:52;;;;;;;10.57;7.07;;;7.90;99.90;;;;;;4970293;28;20180;-70
2022/02/10 16:10:54;;;;;;;16.73;7.93;;;7.60;99.90;;;;;;4991522;28;20512;-71
2022/02/10 16:18:43;;;;;;;11.87;8.30;;;7.50;99.90;;;;;;4992209;28;20247;-72
2022/02/10 16:21:11;;;;;;;11.93;7.77;;;7.60;99.90;;;;;;4991245;28;20458;-71
2022/02/10 16:23:36;;;;;;;21.23;11.50;;;7.50;99.90;;;;;;4991182;28;20463;-72
2022/02/10 16:26:15;;;;;;;17.07;12.50;;;7.60;99.90;;;;;;4991558;28;20407;-71
2022/02/10 16:28:42;;;;;;;14.73;8.70;;;7.60;99.90;;;;;;4991629;28;20188;-70
2022/02/10 16:31:09;;;;;;;11.20;6.43;;;7.60;99.90;;;;;;4989912;28;20437;-70
2022/02/10 16:33:35;;;;;;;11.50;7.57;;;7.60;99.90;;;;;;4991138;28;20418;-70
2022/02/10 16:36:04;;;;;;;6.30;5.57;;;7.50;99.90;;;;;;4991462;28;20462;-70
2022/02/10 16:38:31;;;;;;;17.43;7.13;;;7.60;99.90;;;;;;4991524;28;20460;-70
2022/02/10 16:40:56;;;;;;;5.53;4.60;;;7.60;99.90;;;;;;4991099;28;20439;-71
2022/02/10 16:43:22;;;;;;;5.70;5.10;;;7.60;99.90;;;;;;4985853;28;20894;-71
2022/02/10 16:45:48;;;;;;;5.60;3.80;;;7.60;99.90;;;;;;4971946;28;20707;-70
2022/02/10 16:48:14;;;;;;;6.20;4.60;;;7.60;99.90;;;;;;4988413;28;20455;-70
2022/02/10 16:50:43;;;;;;;12.73;5.20;;;7.70;99.90;;;;;;4990696;28;20233;-69
2022/02/10 16:53:12;;;;;;;15.83;4.63;;;7.60;99.90;;;;;;4990184;28;20578;-70
2022/02/10 17:14:06;;;;;;;5.90;2.90;;;7.70;99.90;;;;;;4994772;28;20423;-72
2022/02/10 17:14:52;;;;;;;4.77;4.00;;;7.70;99.90;;;;;;4994305;28;20474;-72
2022/02/10 17:17:26;;;;;;;5.80;3.90;;;7.70;99.90;;;;;;4994401;28;20422;-71
2022/02/10 17:20:24;;;;;;;4.73;3.47;;;7.60;99.90;;;;;;4993784;28;20456;-73
2022/02/10 17:25:35;;;;;;;9.63;3.67;;;7.60;99.90;;;;;;4994694;28;20420;-72
2022/02/10 17:28:03;;;;;;;7.47;4.10;;;7.60;99.90;;;;;;4994435;28;20429;-72
2022/02/10 17:33:10;;;;;;;11.53;6.90;;;7.60;99.90;;;;;;4994275;28;20451;-72
2022/02/10 17:36:03;;;;;;;3.90;3.50;;;7.60;99.90;;;;;;4993213;28;20935;-72
2022/02/10 17:54:24;;;;;;;3.67;3.33;;;7.60;99.90;;;;;;4993877;28;20915;-72
2022/02/10 17:56:50;;;;;;;7.83;3.40;;;7.50;99.90;;;;;;4994234;28;20171;-72
2022/02/10 17:59:19;;;;;;;6.03;3.30;;;7.50;99.90;;;;;;4993761;28;20427;-72
2022/02/10 18:01:48;;;;;;;8.07;4.23;;;7.50;99.90;;;;;;4993808;28;20204;-73
2022/02/10 18:04:15;;;;;;;8.57;2.90;;;7.50;99.90;;;;;;4993471;28;21028;-73
2022/02/10 18:06:54;;;;;;;5.13;3.20;;;7.50;99.90;;;;;;4993445;28;20511;-72
2022/02/10 18:13:06;;;;;;;4.80;3.20;;;7.40;99.90;;;;;;4952499;29;20461;-73
2022/02/10 18:15:16;;;;;;;4.23;3.80;;;7.40;99.90;;;;;;4951892;29;20422;-74
2022/02/10 18:17:48;;;;;;;5.03;3.83;;;7.40;99.90;;;;;;4978874;28;20452;-72
2022/02/10 18:20:21;;;;;;;6.40;4.73;;;7.40;99.90;;;;;;4993668;28;20424;-72
2022/02/10 18:22:58;;;;;;;10.13;4.73;;;7.40;99.90;;;;;;4993368;28;20461;-70
2022/02/10 19:08:22;;;;;;;6.93;4.77;;;7.10;99.90;;;;;;4986888;28;20428;-72
2022/02/10 19:10:54;;;;;;;4.93;4.33;;;7.00;99.90;;;;;;4992423;28;20788;-74
2022/02/10 19:13:21;;;;;;;3.77;3.47;;;6.90;99.90;;;;;;4991319;28;20798;-73
2022/02/10 19:15:47;;;;;;;10.83;6.20;;;6.90;99.90;;;;;;4992682;28;20527;-73
2022/02/10 19:18:12;;;;;;;8.00;4.07;;;6.80;99.90;;;;;;4991921;28;21039;-72
2022/02/10 19:20:39;;;;;;;6.40;4.17;;;6.70;99.90;;;;;;4992351;28;20182;-75
2022/02/10 19:23:06;;;;;;;7.43;4.50;;;6.70;99.90;;;;;;4992291;28;20206;-73
2022/02/10 19:25:36;;;;;;;7.20;5.20;;;6.60;99.90;;;;;;4992315;28;20407;-72
2022/02/10 19:28:03;;;;;;;6.60;5.03;;;6.60;99.90;;;;;;4992267;28;20787;-72
2022/02/10 19:30:35;;;;;;;7.63;4.10;;;6.60;99.90;;;;;;4992166;28;20959;-72
2022/02/10 19:33:03;;;;;;;6.47;3.80;;;6.60;99.90;;;;;;4990834;28;20518;-72
2022/02/10 19:35:30;;;;;;;7.70;4.33;;;6.50;99.90;;;;;;4991098;28;20451;-73
2022/02/10 19:38:02;;;;;;;3.50;3.23;;;6.50;99.90;;;;;;4992043;28;20422;-72
2022/02/10 19:40:30;;;;;;;7.13;3.83;;;6.50;99.90;;;;;;4992369;28;20417;-72
2022/02/10 19:42:56;;;;;;;5.97;3.13;;;6.40;99.90;;;;;;4991742;28;20457;-73
2022/02/10 19:45:24;;;;;;;5.13;3.40;;;6.40;99.90;;;;;;4992573;28;20426;-73
2022/02/10 19:47:50;;;;;;;5.47;4.50;;;6.40;99.90;;;;;;4992060;28;20423;-72
2022/02/10 19:50:22;;;;;;;6.27;3.20;;;6.30;99.90;;;;;;4992289;28;20498;-73
2022/02/10 19:52:49;;;;;;;5.60;4.07;;;6.30;99.90;;;;;;4991727;28;20955;-71
2022/02/10 19:55:20;;;;;;;8.57;4.07;;;6.30;99.90;;;;;;4992224;28;20416;-72
2022/02/10 19:57:47;;;;;;;4.27;3.87;;;6.30;99.90;;;;;;4991956;28;20984;-74
2022/02/10 20:00:19;;;;;;;3.93;3.30;;;6.30;99.90;;;;;;4990782;28;20427;-72
2022/02/10 20:02:45;;;;;;;3.73;3.07;;;6.30;99.90;;;;;;4980223;28;20473;-73
2022/02/10 20:05:11;;;;;;;4.70;3.60;;;6.30;99.90;;;;;;4976906;28;20923;-73
2022/02/10 20:07:41;;;;;;;4.57;3.60;;;6.20;99.90;;;;;;4990145;28;20481;-73
2022/02/10 20:10:09;;;;;;;2.90;2.70;;;6.20;99.90;;;;;;4991271;28;20210;-72
2022/02/10 20:12:39;;;;;;;4.17;3.83;;;6.20;99.90;;;;;;4991521;28;20446;-72
2022/02/10 20:15:07;;;;;;;3.00;2.80;;;6.20;99.90;;;;;;4991312;28;20475;-73
2022/02/10 20:17:33;;;;;;;5.80;3.27;;;6.10;99.90;;;;;;4979872;28;20997;-72
2022/02/10 20:19:58;;;;;;;3.03;2.80;;;6.10;99.90;;;;;;4991301;28;20451;-72
2022/02/10 20:22:24;;;;;;;3.50;3.07;;;6.00;99.90;;;;;;4991711;28;20197;-73
2022/02/10 20:24:49;;;;;;;3.23;2.93;;;6.00;99.90;;;;;;4991235;28;20234;-74
2022/02/10 20:27:15;;;;;;;3.67;3.13;;;5.90;99.90;;;;;;4991996;28;20216;-71
2022/02/10 20:29:41;;;;;;;4.53;3.07;;;5.90;99.90;;;;;;4994415;28;20301;-73
2022/02/10 20:32:07;;;;;;;5.37;3.50;;;5.80;99.90;;;;;;4994947;28;20553;-74
2022/02/10 20:34:33;;;;;;;7.13;3.80;;;5.80;99.90;;;;;;4995133;28;20296;-72
2022/02/10 20:37:01;;;;;;;10.20;3.93;;;5.80;99.90;;;;;;4995166;28;20566;-73
2022/02/10 20:39:28;;;;;;;5.90;3.30;;;5.80;99.90;;;;;;4995155;28;20241;-73
2022/02/10 20:42:02;;;;;;;3.77;3.40;;;5.80;99.90;;;;;;4993710;28;20534;-73
2022/02/10 20:44:28;;;;;;;11.63;4.10;;;5.80;99.90;;;;;;4994906;28;20491;-72
2022/02/10 20:46:54;;;;;;;4.70;3.17;;;5.80;99.90;;;;;;4995304;28;20474;-73
2022/02/10 20:49:22;;;;;;;4.53;4.00;;;5.80;99.90;;;;;;4995370;28;20225;-74
2022/02/10 20:51:51;;;;;;;4.43;3.60;;;5.80;99.90;;;;;;4995031;28;20225;-72
2022/02/10 20:54:18;;;;;;;6.83;3.60;;;5.80;99.90;;;;;;4994840;28;20440;-73
2022/02/10 20:56:45;;;;;;;7.87;3.90;;;5.80;99.90;;;;;;4991976;28;20984;-75
2022/02/10 20:59:47;;;;;;;5.30;4.30;;;5.80;99.90;;;;;;4994890;28;20945;-73
2022/02/10 21:02:13;;;;;;;4.70;3.70;;;5.80;99.90;;;;;;4986235;28;20503;-73
2022/02/10 21:04:53;;;;;;;4.90;3.20;;;5.80;99.90;;;;;;4991675;28;20491;-72
2022/02/10 21:07:28;;;;;;;3.90;3.60;;;5.70;99.90;;;;;;4993424;28;20457;-73
2022/02/10 21:09:59;;;;;;;4.63;3.70;;;5.80;99.90;;;;;;4990111;28;20993;-75
2022/02/10 21:12:28;;;;;;;4.73;3.77;;;5.70;99.90;;;;;;4984518;28;20451;-74
2022/02/10 21:14:56;;;;;;;6.03;4.10;;;5.70;99.90;;;;;;4990274;28;20462;-72
2022/02/10 21:17:26;;;;;;;7.20;3.57;;;5.80;99.90;;;;;;4984554;28;20494;-73
2022/02/10 21:19:57;;;;;;;7.33;5.30;;;5.80;99.90;;;;;;4982036;28;20477;-73
2022/02/10 21:22:22;;;;;;;7.47;4.90;;;5.80;99.90;;;;;;4978443;28;20452;-73
2022/02/10 21:24:58;;;;;;;6.73;4.23;;;5.80;99.90;;;;;;4974443;28;20522;-72
2022/02/10 21:29:59;;;;;;;4.67;4.03;;;5.90;99.90;;;;;;4974491;28;20468;-72
2022/02/10 21:32:27;;;;;;;13.00;4.60;;;5.90;99.90;;;;;;4974937;28;20997;-72
2022/02/10 21:35:13;;;;;;;5.90;3.90;;;5.90;99.90;;;;;;4974163;28;20478;-73
2022/02/10 21:37:54;;;;;;;4.00;3.40;;;5.90;99.90;;;;;;4974856;28;20921;-73
2022/02/10 21:40:34;;;;;;;6.77;4.13;;;5.90;99.90;;;;;;4973805;28;20519;-73
2022/02/10 21:52:35;;;;;;;11.33;4.10;;;5.90;99.90;;;;;;4986987;28;20449;-73
2022/02/10 21:57:44;;;;;;;4.70;3.10;;;6.00;99.90;;;;;;4993734;28;20463;-72
2022/02/10 22:07:41;;;;;;;3.17;2.87;;;6.00;99.90;;;;;;4993431;28;20468;-71
2022/02/10 22:20:42;;;;;;;3.83;3.03;;;6.10;99.90;;;;;;4973635;28;20442;-73
2022/02/10 22:23:15;;;;;;;4.23;3.00;;;6.10;99.90;;;;;;4973496;28;20495;-72
2022/02/10 22:25:41;;;;;;;4.93;2.93;;;6.10;99.90;;;;;;4973836;28;20874;-73
2022/02/10 22:28:24;;;;;;;5.90;3.17;;;6.10;99.90;;;;;;4973636;28;20519;-72
2022/02/10 22:31:11;;;;;;;6.60;3.57;;;6.10;99.90;;;;;;4973360;28;20706;-72
2022/02/10 22:36:09;;;;;;;5.27;3.30;;;6.20;99.90;;;;;;4973362;28;20427;-75
2022/02/10 22:38:36;;;;;;;5.57;3.40;;;6.20;99.90;;;;;;4973646;28;20427;-73
2022/02/10 22:41:08;;;;;;;3.03;2.73;;;6.20;99.90;;;;;;4973067;28;21001;-72
2022/02/10 22:43:35;;;;;;;7.77;3.37;;;6.20;99.90;;;;;;4973408;28;20474;-74
2022/02/10 22:46:00;;;;;;;7.43;3.40;;;6.10;99.90;;;;;;4973335;28;20464;-72
2022/02/10 22:48:26;;;;;;;5.23;3.23;;;6.10;99.90;;;;;;4988149;28;20447;-72
2022/02/10 22:50:52;;;;;;;7.80;3.30;;;6.10;99.90;;;;;;4992359;28;20212;-73
2022/02/10 22:53:17;;;;;;;2.67;2.47;;;6.10;99.90;;;;;;4991557;28;20257;-72
2022/02/10 22:55:43;;;;;;;6.60;3.10;;;6.10;99.90;;;;;;4992579;28;20243;-74
2022/02/10 22:58:09;;;;;;;10.53;3.40;;;6.10;99.90;;;;;;4992653;28;20690;-72
2022/02/10 23:00:36;;;;;;;3.50;3.20;;;6.10;99.90;;;;;;4992482;28;20212;-72
2022/02/10 23:03:02;;;;;;;4.53;3.23;;;6.10;99.90;;;;;;4992051;28;20213;-73
2022/02/10 23:05:27;;;;;;;2.97;2.77;;;6.00;99.90;;;;;;4992472;28;20514;-74
2022/02/10 23:07:57;;;;;;;3.73;3.30;;;6.00;99.90;;;;;;4992326;28;20704;-73
2022/02/10 23:10:43;;;;;;;5.03;3.83;;;6.00;99.90;;;;;;4991100;28;20209;-73
2022/02/10 23:13:09;;;;;;;5.63;3.10;;;6.00;99.90;;;;;;4989516;28;20449;-73
2022/02/10 23:15:39;;;;;;;4.20;3.27;;;6.10;99.90;;;;;;4992375;28;20462;-74
2022/02/10 23:18:19;;;;;;;6.43;3.40;;;6.10;99.90;;;;;;4992042;28;20453;-73
2022/02/10 23:20:45;;;;;;;4.30;3.43;;;6.10;99.90;;;;;;4992127;28;20498;-73
2022/02/10 23:23:14;;;;;;;3.17;2.87;;;6.10;99.90;;;;;;4991676;28;20460;-72
2022/02/10 23:25:42;;;;;;;3.77;3.27;;;6.10;99.90;;;;;;4992185;28;20511;-72
2022/02/10 23:28:10;;;;;;;11.33;3.90;;;6.10;99.90;;;;;;4992040;28;20472;-72
2022/02/10 23:30:36;;;;;;;6.23;3.73;;;6.10;99.90;;;;;;4991093;28;20547;-72
2022/02/10 23:33:21;;;;;;;5.97;3.73;;;6.10;99.90;;;;;;4991710;28;20530;-73
2022/02/10 23:38:49;;;;;;;7.90;3.90;;;6.10;99.90;;;;;;4991518;28;20488;-73
2022/02/10 23:43:45;;;;;;;7.20;3.90;;;6.10;99.90;;;;;;4991588;28;20562;-74
2022/02/10 23:46:11;;;;;;;4.27;3.87;;;6.10;99.90;;;;;;4991802;28;20493;-73
2022/02/10 23:48:36;;;;;;;7.03;3.60;;;6.10;99.90;;;;;;4992100;28;20513;-73
2022/02/10 23:51:03;;;;;;;6.13;3.87;;;6.10;99.90;;;;;;4991673;28;20589;-73
2022/02/10 23:53:29;;;;;;;5.80;4.00;;;6.00;99.90;;;;;;4992040;28;20212;-73
2022/02/10 23:55:55;;;;;;;5.30;4.60;;;6.10;99.90;;;;;;4990686;28;20422;-73
2022/02/10 23:58:48;;;;;;;5.00;3.80;;;6.10;99.90;;;;;;4992006;28;20922;-73
